Time;durP1;ratioP1;P1;durP2;ratioP2;P2;SDS_P1;SDS_P2;PMS_P1;PMS_P2;Temp;Humidity;BMP_temperature;BMP_pressure;BME280_temperature;BME280_humidity;BME280_pressure;Samples;Min_cycle;Max_cycle;Signal;HPM_P1;HPM_P2
2021/08/26 00:07:42;;;;;;;;;;;;;;;12.62;66.84;97651.17;1722550;83;25170;-86
2021/08/26 00:10:10;;;;;;;;;;;;;;;12.61;66.89;97658.70;1723639;83;20230;-85
2021/08/26 00:12:39;;;;;;;;;;;;;;;12.60;66.94;97654.44;1723075;82;24830;-86
2021/08/26 00:15:06;;;;;;;;;;;;;;;12.57;66.99;97650.28;1723164;83;22781;-85
2021/08/26 00:17:40;;;;;;;;;;;;;;;12.54;67.05;97643.53;1723224;82;26275;-86
2021/08/26 00:20:07;;;;;;;;;;;;;;;12.55;67.09;97640.39;1723620;83;25076;-85
2021/08/26 00:22:35;;;;;;;;;;;;;;;12.56;67.16;97640.75;1723367;83;20649;-86
2021/08/26 00:25:01;;;;;;;;;;;;;;;12.56;67.17;97639.43;1723289;82;24861;-86
2021/08/26 00:27:27;;;;;;;;;;;;;;;12.52;67.21;97629.70;1723369;83;22017;-86
2021/08/26 00:29:53;;;;;;;;;;;;;;;12.47;67.20;97625.84;1723607;82;26016;-86
2021/08/26 00:32:19;;;;;;;;;;;;;;;12.47;67.23;97624.52;1724402;81;20297;-86
2021/08/26 00:34:46;;;;;;;;;;;;;;;12.44;67.24;97619.05;1723811;82;20477;-85
2021/08/26 00:37:13;;;;;;;;;;;;;;;12.45;67.30;97610.70;1723620;82;24550;-85
2021/08/26 00:39:39;;;;;;;;;;;;;;;12.46;67.31;97609.74;1721564;83;22059;-85
2021/08/26 00:42:05;;;;;;;;;;;;;;;12.47;67.39;97610.09;1723810;83;26040;-85
2021/08/26 00:44:31;;;;;;;;;;;;;;;12.45;67.41;97608.08;1725404;81;24466;-85
2021/08/26 00:46:57;;;;;;;;;;;;;;;12.47;67.48;97604.84;1723904;83;20813;-85
2021/08/26 00:49:25;;;;;;;;;;;;;;;12.46;67.49;97604.02;1723705;82;20246;-85
2021/08/26 00:51:51;;;;;;;;;;;;;;;12.48;67.52;97602.09;1723571;83;22081;-85
2021/08/26 00:54:17;;;;;;;;;;;;;;;12.46;67.53;97607.12;1723504;82;21023;-85
2021/08/26 00:56:43;;;;;;;;;;;;;;;12.46;67.58;97596.62;1723487;83;24464;-85
2021/08/26 00:59:09;;;;;;;;;;;;;;;12.41;67.59;97602.77;1723818;83;20172;-85
2021/08/26 01:01:43;;;;;;;;;;;;;;;12.43;67.64;97596.91;1721943;82;24712;-85
2021/08/26 01:04:15;;;;;;;;;;;;;;;12.45;67.68;97599.73;1718081;82;22054;-85
2021/08/26 01:06:52;;;;;;;;;;;;;;;12.46;67.72;97594.83;1718797;82;25986;-86
2021/08/26 01:09:20;;;;;;;;;;;;;;;12.46;67.76;97591.38;1720431;82;24441;-85
2021/08/26 01:11:47;;;;;;;;;;;;;;;12.43;67.78;97585.11;1722270;82;20205;-85
2021/08/26 01:14:15;;;;;;;;;;;;;;;12.43;67.81;97587.73;1724941;82;24736;-85
2021/08/26 01:16:42;;;;;;;;;;;;;;;12.43;67.87;97583.31;1726070;82;22688;-85
2021/08/26 01:19:08;;;;;;;;;;;;;;;12.43;67.90;97582.48;1723307;82;26726;-86
2021/08/26 01:21:34;;;;;;;;;;;;;;;12.42;67.92;97581.65;1727673;81;20533;-85
2021/08/26 01:24:05;;;;;;;;;;;;;;;12.45;67.96;97584.46;1723411;82;20878;-85
2021/08/26 01:26:32;;;;;;;;;;;;;;;12.45;68.01;97577.90;1719429;82;25168;-85
2021/08/26 01:29:00;;;;;;;;;;;;;;;12.48;68.06;97579.78;1692708;82;22554;-85
2021/08/26 01:31:26;;;;;;;;;;;;;;;12.52;68.10;97572.45;1720051;82;27046;-85
2021/08/26 01:33:52;;;;;;;;;;;;;;;12.55;68.16;97569.53;1711646;82;20459;-85
2021/08/26 01:36:21;;;;;;;;;;;;;;;12.58;68.19;97573.20;1710090;82;20281;-85
2021/08/26 01:38:47;;;;;;;;;;;;;;;12.64;68.25;97572.64;1726171;82;24754;-85
2021/08/26 01:41:14;;;;;;;;;;;;;;;12.66;68.30;97564.60;1712441;82;20853;-85
2021/08/26 01:43:40;;;;;;;;;;;;;;;12.67;68.31;97563.64;1723175;81;25975;-85
2021/08/26 01:46:06;;;;;;;;;;;;;;;12.69;68.34;97561.71;1717778;82;24382;-88
2021/08/26 01:48:32;;;;;;;;;;;;;;;12.73;68.37;97556.52;1713485;81;20318;-88
2021/08/26 01:51:00;;;;;;;;;;;;;;;12.81;68.43;97552.23;1694922;82;20470;-88
2021/08/26 01:53:27;;;;;;;;;;;;;;;12.84;68.47;97549.30;1710189;82;22073;-88
2021/08/26 01:55:52;;;;;;;;;;;;;;;12.85;68.47;97542.25;1718719;82;21087;-88
2021/08/26 01:58:19;;;;;;;;;;;;;;;12.83;68.47;97545.02;1718286;82;24660;-88
2021/08/26 02:00:44;;;;;;;;;;;;;;;12.83;68.46;97538.94;1715938;81;20340;-85
2021/08/26 02:03:10;;;;;;;;;;;;;;;12.83;68.48;97537.63;1707958;83;20550;-85
2021/08/26 02:05:36;;;;;;;;;;;;;;;12.83;68.48;97530.58;1723065;82;21997;-85
2021/08/26 02:08:02;;;;;;;;;;;;;;;12.86;68.48;97521.59;1707016;83;21006;-85
2021/08/26 02:10:28;;;;;;;;;;;;;;;12.86;68.51;97519.80;1709834;83;20882;-85
2021/08/26 02:12:55;;;;;;;;;;;;;;;12.90;68.54;97509.34;1708326;83;20574;-87
2021/08/26 02:15:21;;;;;;;;;;;;;;;12.91;68.52;97501.81;1716078;82;24802;-87
2021/08/26 02:17:47;;;;;;;;;;;;;;;12.91;68.51;97502.30;1710831;83;20874;-87
2021/08/26 02:20:14;;;;;;;;;;;;;;;12.91;68.52;97497.88;1708889;82;26038;-87
2021/08/26 02:22:41;;;;;;;;;;;;;;;12.91;68.52;97500.50;1711080;83;24611;-87
2021/08/26 02:25:07;;;;;;;;;;;;;;;12.94;68.53;97500.68;1710622;83;20490;-87
2021/08/26 02:27:34;;;;;;;;;;;;;;;12.94;68.55;97489.69;1705985;82;24808;-88
2021/08/26 02:30:00;;;;;;;;;;;;;;;12.97;68.57;97492.05;1709648;82;22083;-88
2021/08/26 02:32:29;;;;;;;;;;;;;;;13.01;68.58;97489.95;1707739;82;26832;-85
2021/08/26 02:34:57;;;;;;;;;;;;;;;13.02;68.60;97486.84;1708242;83;24415;-85
2021/08/26 02:37:23;;;;;;;;;;;;;;;13.03;68.65;97483.25;1711017;83;20432;-85
2021/08/26 02:39:49;;;;;;;;;;;;;;;13.02;68.65;97483.73;1714376;83;25058;-85
2021/08/26 02:42:15;;;;;;;;;;;;;;;13.03;68.64;97480.13;1713416;83;20291;-85
2021/08/26 02:44:41;;;;;;;;;;;;;;;13.07;68.68;97474.92;1712540;83;20958;-85
2021/08/26 02:47:07;;;;;;;;;;;;;;;13.09;68.70;97475.58;1713301;82;20893;-84
2021/08/26 02:49:33;;;;;;;;;;;;;;;13.07;68.73;97467.05;1707847;82;20287;-85
2021/08/26 02:51:59;;;;;;;;;;;;;;;13.10;68.73;97466.73;1707457;83;20284;-84
2021/08/26 02:54:25;;;;;;;;;;;;;;;13.13;68.76;97469.60;1705685;83;21642;-85
2021/08/26 02:56:51;;;;;;;;;;;;;;;13.14;68.79;97466.01;1712613;82;25938;-88
2021/08/26 02:59:17;;;;;;;;;;;;;;;13.14;68.79;97462.06;1712417;83;24416;-87
2021/08/26 03:01:44;;;;;;;;;;;;;;;13.16;68.80;97462.73;1712262;83;20359;-85
2021/08/26 03:04:10;;;;;;;;;;;;;;;13.20;68.83;97457.55;1719210;83;24801;-85
2021/08/26 03:06:35;;;;;;;;;;;;;;;13.21;68.82;97460.48;1720188;81;20231;-85
2021/08/26 03:09:02;;;;;;;;;;;;;;;13.20;68.82;97450.98;1720696;83;20929;-86
2021/08/26 03:11:28;;;;;;;;;;;;;;;13.21;68.84;97450.80;1722823;81;24459;-85
2021/08/26 03:14:03;;;;;;;;;;;;;;;13.23;68.84;97451.98;1718800;82;20561;-85
2021/08/26 03:16:28;;;;;;;;;;;;;;;13.25;68.84;97450.05;1721718;82;24805;-85
2021/08/26 03:19:03;;;;;;;;;;;;;;;13.25;68.85;97447.41;1723499;83;22636;-85
2021/08/26 03:21:29;;;;;;;;;;;;;;;13.24;68.81;97440.02;1725073;81;25937;-85
2021/08/26 03:23:55;;;;;;;;;;;;;;;13.27;68.82;97437.56;1723607;81;20455;-85
2021/08/26 03:26:21;;;;;;;;;;;;;;;13.29;68.82;97440.40;1723739;81;20393;-86
2021/08/26 03:28:47;;;;;;;;;;;;;;;13.32;68.85;97440.57;1723147;81;24737;-84
2021/08/26 03:31:19;;;;;;;;;;;;;;;13.30;68.84;97429.41;1724371;81;22112;-85
2021/08/26 03:33:45;;;;;;;;;;;;;;;13.30;68.81;97428.92;1721812;81;26086;-85
2021/08/26 03:36:12;;;;;;;;;;;;;;;13.31;68.82;97430.55;1721596;81;25260;-86
2021/08/26 03:38:40;;;;;;;;;;;;;;;13.33;68.83;97433.03;1721756;83;20444;-85
2021/08/26 03:41:06;;;;;;;;;;;;;;;13.36;68.83;97429.61;1722283;82;24780;-86
2021/08/26 03:43:32;;;;;;;;;;;;;;;13.38;68.89;97432.09;1723121;81;21942;-85
2021/08/26 03:45:58;;;;;;;;;;;;;;;13.37;68.86;97424.70;1723461;82;21620;-85
2021/08/26 03:48:27;;;;;;;;;;;;;;;13.36;68.87;97427.50;1723133;83;25260;-85
2021/08/26 03:51:00;;;;;;;;;;;;;;;13.36;68.85;97419.61;1723162;82;20224;-85
2021/08/26 03:53:29;;;;;;;;;;;;;;;13.37;68.85;97422.55;1721445;83;25412;-86
2021/08/26 03:55:55;;;;;;;;;;;;;;;13.38;68.86;97408.45;1720538;82;22840;-86
2021/08/26 03:58:21;;;;;;;;;;;;;;;13.38;68.86;97414.53;1731626;82;26445;-85
2021/08/26 04:00:47;;;;;;;;;;;;;;;13.42;68.86;97414.25;1720367;83;20840;-86
2021/08/26 04:03:13;;;;;;;;;;;;;;;13.43;68.86;97418.02;1713151;82;20842;-86
2021/08/26 04:05:39;;;;;;;;;;;;;;;13.45;68.91;97410.83;1711368;82;20534;-86
2021/08/26 04:08:05;;;;;;;;;;;;;;;13.49;68.94;97408.22;1707835;83;21920;-85
2021/08/26 04:10:35;;;;;;;;;;;;;;;13.54;68.96;97406.45;1730467;82;22167;-86
2021/08/26 04:13:00;;;;;;;;;;;;;;;13.54;68.96;97403.83;1711837;83;24546;-86
2021/08/26 04:15:26;;;;;;;;;;;;;;;13.56;68.99;97397.94;1707531;83;20274;-85
2021/08/26 04:17:54;;;;;;;;;;;;;;;13.57;68.96;97403.55;1712305;83;37756;-85
2021/08/26 04:20:20;;;;;;;;;;;;;;;13.55;68.94;97401.05;1710672;83;22034;-85
2021/08/26 04:22:48;;;;;;;;;;;;;;;13.58;68.96;97406.00;1710856;82;20885;-84
2021/08/26 04:25:14;;;;;;;;;;;;;;;13.61;68.96;97407.52;1711469;83;24483;-84
2021/08/26 04:27:40;;;;;;;;;;;;;;;13.64;68.99;97409.83;1702689;83;20237;-84
2021/08/26 04:30:10;;;;;;;;;;;;;;;13.68;69.00;97413.34;1701753;82;20624;-84
2021/08/26 04:32:36;;;;;;;;;;;;;;;13.77;69.03;97418.17;1707206;83;21960;-84
2021/08/26 04:35:02;;;;;;;;;;;;;;;13.81;69.05;97417.70;1702312;82;20894;-84
2021/08/26 04:37:29;;;;;;;;;;;;;;;13.79;69.04;97410.48;1710827;82;24509;-84
2021/08/26 04:40:00;;;;;;;;;;;;;;;13.76;69.00;97417.83;1706888;83;20238;-87
2021/08/26 04:42:26;;;;;;;;;;;;;;;13.74;68.97;97422.43;1709923;83;24771;-87
2021/08/26 04:44:52;;;;;;;;;;;;;;;13.77;68.97;97420.31;1710015;82;22791;-82
2021/08/26 04:47:19;;;;;;;;;;;;;;;13.79;68.99;97436.78;1709269;83;21588;-84
2021/08/26 04:49:48;;;;;;;;;;;;;;;13.82;69.01;97443.03;1706529;83;25211;-84
2021/08/26 04:52:15;;;;;;;;;;;;;;;13.85;69.02;97437.15;1708714;83;20161;-84
2021/08/26 04:54:43;;;;;;;;;;;;;;;13.85;69.04;97437.15;1711996;83;24848;-84
2021/08/26 04:57:11;;;;;;;;;;;;;;;13.85;69.02;97430.57;1706787;83;21422;-84
2021/08/26 04:59:37;;;;;;;;;;;;;;;13.85;69.05;97421.37;1700173;83;26122;-88
2021/08/26 05:02:03;;;;;;;;;;;;;;;13.85;69.03;97419.56;1713130;82;24379;-88
2021/08/26 05:04:29;;;;;;;;;;;;;;;13.86;69.02;97420.36;1715666;82;20905;-87
2021/08/26 05:06:56;;;;;;;;;;;;;;;13.86;69.02;97426.45;1710957;82;24716;-88
2021/08/26 05:09:22;;;;;;;;;;;;;;;13.84;69.01;97427.11;1707560;82;21856;-87
2021/08/26 05:11:48;;;;;;;;;;;;;;;13.88;69.03;97430.25;1712137;82;20984;-87
2021/08/26 05:14:14;;;;;;;;;;;;;;;13.91;69.10;97424.70;1710737;82;24105;-83
2021/08/26 05:16:42;;;;;;;;;;;;;;;13.92;69.20;97425.02;1719799;82;20434;-83
2021/08/26 05:19:08;;;;;;;;;;;;;;;13.91;69.25;97421.56;1726387;82;24885;-83
2021/08/26 05:21:34;;;;;;;;;;;;;;;13.91;69.31;97430.77;1724291;82;21068;-83
2021/08/26 05:24:01;;;;;;;;;;;;;;;13.93;69.40;97426.19;1721485;82;21250;-84
2021/08/26 05:26:27;;;;;;;;;;;;;;;13.95;69.48;97427.36;1722915;81;24525;-84
2021/08/26 05:28:53;;;;;;;;;;;;;;;13.96;69.55;97415.87;1719355;82;20321;-83
2021/08/26 05:31:19;;;;;;;;;;;;;;;13.94;69.61;97429.16;1723671;82;20852;-83
2021/08/26 05:33:45;;;;;;;;;;;;;;;13.94;69.67;97435.73;1717131;82;20219;-84
2021/08/26 05:36:11;;;;;;;;;;;;;;;13.96;69.75;97440.37;1722800;82;21024;-86
2021/08/26 05:38:37;;;;;;;;;;;;;;;13.99;69.81;97437.42;1687559;82;20875;-84
2021/08/26 05:41:03;;;;;;;;;;;;;;;14.02;69.94;97433.16;1713126;82;20598;-86
2021/08/26 05:43:29;;;;;;;;;;;;;;;14.03;70.02;97431.36;1718459;82;20236;-86
2021/08/26 05:46:08;;;;;;;;;;;;;;;14.05;70.16;97435.50;1716839;82;20260;-86
2021/08/26 05:48:37;;;;;;;;;;;;;;;14.02;70.25;97427.89;1712435;81;25981;-86
2021/08/26 05:51:09;;;;;;;;;;;;;;;13.98;70.37;97421.78;1718348;82;24515;-87
2021/08/26 05:53:35;;;;;;;;;;;;;;;13.91;70.50;97411.55;1720200;82;20312;-88
2021/08/26 05:56:02;;;;;;;;;;;;;;;13.81;70.62;97397.98;1713852;82;24786;-85
2021/08/26 05:58:28;;;;;;;;;;;;;;;13.75;70.73;97387.24;1708259;82;22141;-85
2021/08/26 06:00:54;;;;;;;;;;;;;;;13.71;70.87;97382.79;1718747;82;21179;-87
2021/08/26 06:03:20;;;;;;;;;;;;;;;13.70;71.01;97389.02;1716517;82;20932;-87
2021/08/26 06:05:50;;;;;;;;;;;;;;;13.72;71.12;97408.11;1694277;82;20311;-84
2021/08/26 06:08:17;;;;;;;;;;;;;;;13.76;71.26;97409.94;1709494;82;24940;-84
2021/08/26 06:10:55;;;;;;;;;;;;;;;13.77;71.44;97415.05;1706864;82;21992;-88
2021/08/26 06:13:21;;;;;;;;;;;;;;;13.83;71.59;97407.88;1712510;83;26056;-88
2021/08/26 06:15:47;;;;;;;;;;;;;;;13.84;71.76;97408.70;1712244;83;24403;-88
2021/08/26 06:18:15;;;;;;;;;;;;;;;13.83;71.95;97397.36;1711843;83;20306;-88
2021/08/26 06:20:47;;;;;;;;;;;;;;;13.85;72.09;97396.38;1707889;83;25584;-87
2021/08/26 06:23:14;;;;;;;;;;;;;;;13.83;72.21;97395.21;1712356;83;21954;-86
2021/08/26 06:25:40;;;;;;;;;;;;;;;13.85;72.36;97394.58;1708909;83;25942;-87
2021/08/26 06:28:12;;;;;;;;;;;;;;;13.87;72.47;97397.03;1704273;83;24521;-87
2021/08/26 06:30:38;;;;;;;;;;;;;;;13.87;72.57;97397.03;1710226;83;20303;-87
2021/08/26 06:33:04;;;;;;;;;;;;;;;13.87;72.73;97393.92;1710415;83;20394;-87
2021/08/26 06:35:31;;;;;;;;;;;;;;;13.86;72.82;97392.75;1704251;83;22005;-86
2021/08/26 06:37:57;;;;;;;;;;;;;;;13.85;72.96;97392.44;1712614;83;26010;-90
2021/08/26 06:40:23;;;;;;;;;;;;;;;13.87;73.03;97389.14;1710245;83;20318;-86
2021/08/26 06:42:49;;;;;;;;;;;;;;;13.92;73.17;97380.30;1709058;83;20275;-86
2021/08/26 06:45:15;;;;;;;;;;;;;;;13.95;73.30;97378.70;1711214;82;20789;-84
2021/08/26 06:47:41;;;;;;;;;;;;;;;13.99;73.42;97370.34;1711363;83;22054;-86
2021/08/26 06:50:07;;;;;;;;;;;;;;;14.06;73.55;97375.81;1703987;83;20971;-87
2021/08/26 06:52:33;;;;;;;;;;;;;;;14.11;73.66;97367.80;1712970;83;24370;-86
2021/08/26 06:54:59;;;;;;;;;;;;;;;14.14;73.76;97356.12;1706174;82;20256;-86
2021/08/26 06:57:27;;;;;;;;;;;;;;;14.15;73.83;97363.86;1707984;83;20215;-85
2021/08/26 06:59:53;;;;;;;;;;;;;;;14.18;73.91;97362.74;1710373;83;22106;-85
2021/08/26 07:02:19;;;;;;;;;;;;;;;14.21;74.00;97372.94;1715190;82;21094;-85
2021/08/26 07:04:51;;;;;;;;;;;;;;;14.24;74.10;97377.39;1731402;82;20693;-86
2021/08/26 07:07:17;;;;;;;;;;;;;;;14.27;74.20;97368.38;1713419;82;20317;-85
2021/08/26 07:09:45;;;;;;;;;;;;;;;14.32;74.28;97373.17;1721908;81;24924;-85
2021/08/26 07:12:11;;;;;;;;;;;;;;;14.35;74.37;97375.47;1722904;82;22092;-84
2021/08/26 07:14:37;;;;;;;;;;;;;;;14.40;74.47;97370.11;1719270;82;21023;-84
2021/08/26 07:17:03;;;;;;;;;;;;;;;14.44;74.54;97367.52;1722299;82;20289;-85
2021/08/26 07:19:29;;;;;;;;;;;;;;;14.46;74.63;97373.43;1718503;82;20279;-85
2021/08/26 07:21:55;;;;;;;;;;;;;;;14.45;74.68;97370.98;1717826;82;20801;-85
2021/08/26 07:24:21;;;;;;;;;;;;;;;14.42;74.74;97372.10;1717951;82;20256;-85
2021/08/26 07:26:48;;;;;;;;;;;;;;;14.42;74.79;97368.64;1716777;82;21708;-85
2021/08/26 07:29:14;;;;;;;;;;;;;;;14.42;74.86;97369.47;1711210;82;25107;-85
2021/08/26 07:31:43;;;;;;;;;;;;;;;14.50;74.93;97373.47;1717820;82;20650;-86
2021/08/26 07:34:08;;;;;;;;;;;;;;;14.52;75.00;97380.70;1712925;82;24948;-85
2021/08/26 07:36:34;;;;;;;;;;;;;;;14.53;75.05;97386.31;1718536;82;21912;-86
2021/08/26 07:39:00;;;;;;;;;;;;;;;14.56;75.11;97383.34;1718953;82;20859;-86
2021/08/26 07:41:29;;;;;;;;;;;;;;;14.56;75.20;97393.08;1723247;82;24356;-85
2021/08/26 07:44:05;;;;;;;;;;;;;;;14.56;75.27;97389.13;1718366;82;20492;-85
2021/08/26 07:46:31;;;;;;;;;;;;;;;14.54;75.30;97386.65;1720155;82;24765;-86
2021/08/26 07:48:57;;;;;;;;;;;;;;;14.54;75.36;97384.02;1715132;82;20859;-85
2021/08/26 07:51:24;;;;;;;;;;;;;;;14.50;75.41;97380.05;1710524;82;20976;-85
2021/08/26 07:53:50;;;;;;;;;;;;;;;14.53;75.46;97377.09;1717715;82;24380;-85
2021/08/26 07:56:16;;;;;;;;;;;;;;;14.52;75.50;97379.39;1717153;82;20279;-85
2021/08/26 07:58:49;;;;;;;;;;;;;;;14.54;75.52;97384.02;1722703;82;20252;-85
2021/08/26 08:01:15;;;;;;;;;;;;;;;14.54;75.57;97377.44;1710149;82;22038;-89
2021/08/26 08:03:41;;;;;;;;;;;;;;;14.57;75.60;97384.17;1720205;82;26005;-89
2021/08/26 08:06:07;;;;;;;;;;;;;;;14.66;75.67;97380.62;1723598;81;20285;-88
2021/08/26 08:08:33;;;;;;;;;;;;;;;14.73;75.76;97384.77;1723647;83;20514;-88
2021/08/26 08:11:02;;;;;;;;;;;;;;;14.78;75.83;97372.77;1725878;81;20780;-89
2021/08/26 08:13:34;;;;;;;;;;;;;;;14.86;75.88;97383.81;1723970;81;22584;-87
2021/08/26 08:16:02;;;;;;;;;;;;;;;14.84;75.90;97382.64;1723691;82;26190;-87
2021/08/26 08:18:36;;;;;;;;;;;;;;;14.86;75.95;97384.64;1719134;83;25116;-86
2021/08/26 08:21:03;;;;;;;;;;;;;;;14.88;75.97;97380.05;1723021;82;20266;-87
2021/08/26 08:23:29;;;;;;;;;;;;;;;14.94;76.00;97386.48;1722437;83;24833;-87
2021/08/26 08:25:55;;;;;;;;;;;;;;;14.97;76.05;97392.73;1723577;83;21982;-87
2021/08/26 08:28:40;;;;;;;;;;;;;;;14.97;76.08;97388.30;1726600;81;25952;-86
2021/08/26 08:31:12;;;;;;;;;;;;;;;14.95;76.07;97390.25;1722359;81;24446;-87
2021/08/26 08:33:47;;;;;;;;;;;;;;;15.00;76.09;97397.19;1722623;81;20299;-86
2021/08/26 08:36:14;;;;;;;;;;;;;;;15.01;76.11;97397.52;1722341;81;24822;-87
2021/08/26 08:38:42;;;;;;;;;;;;;;;15.06;76.17;97398.36;1724392;81;22943;-87
2021/08/26 08:41:08;;;;;;;;;;;;;;;15.04;76.18;97399.03;1724328;81;26064;-89
2021/08/26 08:43:35;;;;;;;;;;;;;;;14.96;76.17;97396.35;1724788;81;20273;-88
2021/08/26 08:46:05;;;;;;;;;;;;;;;14.90;76.12;97398.30;1708136;83;20439;-88
2021/08/26 08:48:32;;;;;;;;;;;;;;;14.87;76.08;97402.09;1723346;82;24816;-88
2021/08/26 08:50:59;;;;;;;;;;;;;;;14.93;76.11;97413.81;1723531;82;21948;-86
2021/08/26 08:53:29;;;;;;;;;;;;;;;14.93;76.15;97401.95;1721562;82;26067;-86
2021/08/26 08:55:54;;;;;;;;;;;;;;;14.93;76.17;97408.05;1722847;83;24633;-87
2021/08/26 08:58:23;;;;;;;;;;;;;;;14.92;76.21;97410.34;1721868;83;20242;-90
2021/08/26 09:00:49;;;;;;;;;;;;;;;14.92;76.22;97403.77;1723490;81;24771;-90
2021/08/26 09:03:15;;;;;;;;;;;;;;;14.92;76.31;97413.47;1728008;82;20286;-89
2021/08/26 09:05:53;;;;;;;;;;;;;;;14.92;76.32;97410.84;1732159;82;21702;-89
2021/08/26 09:08:21;;;;;;;;;;;;;;;14.91;76.34;97399.47;1703097;83;24607;-89
2021/08/26 09:10:47;;;;;;;;;;;;;;;14.81;76.37;97413.27;1704616;82;20483;-89
2021/08/26 09:13:14;;;;;;;;;;;;;;;14.82;76.40;97422.83;1703627;82;24792;-89
2021/08/26 09:15:48;;;;;;;;;;;;;;;14.79;76.46;97419.66;1731196;82;21896;-89
2021/08/26 09:18:16;;;;;;;;;;;;;;;14.76;76.53;97423.45;1704034;82;26023;-89
2021/08/26 09:20:50;;;;;;;;;;;;;;;14.75;76.58;97423.60;1703613;83;25296;-88
2021/08/26 09:23:16;;;;;;;;;;;;;;;14.73;76.62;97418.48;1704460;82;20228;-89
2021/08/26 09:25:43;;;;;;;;;;;;;;;14.71;76.66;97432.81;1703620;82;24739;-89
2021/08/26 09:28:27;;;;;;;;;;;;;;;14.66;76.69;97430.66;1705870;82;22088;-89
2021/08/26 09:31:13;;;;;;;;;;;;;;;14.64;76.75;97418.95;1704271;82;26030;-88
2021/08/26 09:33:49;;;;;;;;;;;;;;;14.63;76.85;97421.73;1704540;82;24512;-88
2021/08/26 09:36:23;;;;;;;;;;;;;;;14.62;76.89;97416.95;1704072;82;20220;-89
2021/08/26 09:38:50;;;;;;;;;;;;;;;14.54;76.91;97420.05;1704397;82;24798;-89
2021/08/26 09:41:37;;;;;;;;;;;;;;;14.48;76.94;97425.45;1703639;83;22013;-89
2021/08/26 09:44:05;;;;;;;;;;;;;;;14.41;76.96;97419.14;1702722;84;25977;-88
2021/08/26 09:46:32;;;;;;;;;;;;;;;14.37;77.02;97419.62;1701523;84;24380;-88
2021/08/26 09:49:06;;;;;;;;;;;;;;;14.35;77.08;97418.41;1732370;82;20192;-88
2021/08/26 09:51:40;;;;;;;;;;;;;;;14.29;77.12;97423.02;1704498;82;24850;-88
2021/08/26 09:54:24;;;;;;;;;;;;;;;14.28;77.17;97406.88;1703587;83;22055;-87
2021/08/26 09:56:50;;;;;;;;;;;;;;;14.31;77.26;97418.88;1703241;84;26044;-87
2021/08/26 09:59:18;;;;;;;;;;;;;;;14.27;77.37;97419.70;1717763;82;21401;-87
2021/08/26 10:01:44;;;;;;;;;;;;;;;14.26;77.45;97412.78;1702775;84;20213;-87
2021/08/26 10:04:27;;;;;;;;;;;;;;;14.25;77.52;97405.37;1708558;82;24750;-86
2021/08/26 10:06:53;;;;;;;;;;;;;;;14.30;77.61;97406.21;1714736;83;21933;-88
2021/08/26 10:09:20;;;;;;;;;;;;;;;14.33;77.73;97406.41;1716480;83;26138;-86
2021/08/26 10:11:46;;;;;;;;;;;;;;;14.37;77.81;97398.07;1723562;82;24595;-86
2021/08/26 10:14:12;;;;;;;;;;;;;;;14.42;77.92;97395.80;1711228;82;20262;-86
2021/08/26 10:16:38;;;;;;;;;;;;;;;14.48;78.03;97385.95;1716402;83;24875;-86
2021/08/26 10:19:17;;;;;;;;;;;;;;;14.51;78.10;97390.89;1712394;83;22095;-86
2021/08/26 10:21:44;;;;;;;;;;;;;;;14.59;78.19;97387.48;1713470;83;25980;-86
2021/08/26 10:24:14;;;;;;;;;;;;;;;14.67;78.31;97379.64;1714495;82;24613;-86
2021/08/26 10:26:44;;;;;;;;;;;;;;;14.74;78.39;97378.48;1735784;82;20263;-89
2021/08/26 10:29:13;;;;;;;;;;;;;;;14.80;78.50;97378.69;1713414;83;25442;-87
2021/08/26 10:31:39;;;;;;;;;;;;;;;14.90;78.55;97382.50;1717162;83;22173;-87
2021/08/26 10:34:13;;;;;;;;;;;;;;;15.00;78.64;97372.67;1714886;83;26098;-86
2021/08/26 10:36:50;;;;;;;;;;;;;;;15.08;78.74;97367.41;1714113;83;24609;-86
2021/08/26 10:39:27;;;;;;;;;;;;;;;15.17;78.81;97364.29;1702576;83;20197;-86
2021/08/26 10:41:54;;;;;;;;;;;;;;;15.31;78.95;97351.81;1712254;83;24766;-87
2021/08/26 10:44:21;;;;;;;;;;;;;;;15.37;79.03;97363.02;1714636;83;21984;-86
2021/08/26 10:46:49;;;;;;;;;;;;;;;15.40;79.06;97357.41;1716094;83;26017;-86
2021/08/26 10:49:16;;;;;;;;;;;;;;;15.33;79.04;97361.19;1725817;82;24999;-87
2021/08/26 10:51:43;;;;;;;;;;;;;;;15.31;79.00;97357.08;1712844;83;20209;-87
2021/08/26 10:54:23;;;;;;;;;;;;;;;15.27;78.96;97354.45;1710056;83;24865;-88
2021/08/26 10:56:59;;;;;;;;;;;;;;;15.22;78.92;97354.11;1714574;83;21990;-88
2021/08/26 10:59:26;;;;;;;;;;;;;;;15.17;78.92;97354.57;1712200;82;26681;-87
2021/08/26 11:01:54;;;;;;;;;;;;;;;15.10;78.88;97364.13;1715414;82;24400;-88
2021/08/26 11:04:23;;;;;;;;;;;;;;;15.06;78.85;97359.66;1717826;83;20200;-88
2021/08/26 11:06:49;;;;;;;;;;;;;;;15.03;78.87;97363.12;1724733;81;24932;-88
2021/08/26 11:09:20;;;;;;;;;;;;;;;15.03;78.84;97368.39;1726526;81;22065;-88
2021/08/26 11:11:47;;;;;;;;;;;;;;;14.99;78.84;97368.39;1723437;82;26042;-88
2021/08/26 11:14:15;;;;;;;;;;;;;;;14.97;78.83;97365.91;1723963;81;25191;-88
2021/08/26 11:16:44;;;;;;;;;;;;;;;14.98;78.86;97366.23;1724128;81;20244;-88
2021/08/26 11:19:12;;;;;;;;;;;;;;;14.95;78.87;97375.77;1723457;81;24808;-86
2021/08/26 11:24:13;;;;;;;;;;;;;;;14.86;78.90;97371.95;1724201;81;26933;-87
2021/08/26 11:26:52;;;;;;;;;;;;;;;14.85;78.90;97367.66;1724680;81;24473;-88
2021/08/26 11:29:20;;;;;;;;;;;;;;;14.83;78.91;97367.84;1721499;82;20952;-87
2021/08/26 11:31:57;;;;;;;;;;;;;;;14.90;78.95;97374.59;1724367;81;25334;-88
2021/08/26 11:34:30;;;;;;;;;;;;;;;14.93;79.02;97370.34;1721205;81;22056;-87
2021/08/26 11:37:07;;;;;;;;;;;;;;;14.92;79.06;97374.78;1724243;81;26084;-87
2021/08/26 11:39:40;;;;;;;;;;;;;;;14.92;79.11;97374.78;1724978;81;25218;-87
2021/08/26 11:42:07;;;;;;;;;;;;;;;14.98;79.16;97381.22;1723000;83;20254;-87
2021/08/26 11:44:34;;;;;;;;;;;;;;;15.00;79.21;97385.84;1723875;82;24740;-87
2021/08/26 11:47:00;;;;;;;;;;;;;;;15.05;79.28;97386.98;1723546;83;21945;-87
2021/08/26 11:49:38;;;;;;;;;;;;;;;15.15;79.33;97393.46;1723716;83;26012;-87
2021/08/26 11:52:08;;;;;;;;;;;;;;;15.19;79.39;97388.69;1723777;82;24490;-87
2021/08/26 11:54:38;;;;;;;;;;;;;;;15.18;79.46;97386.53;1723453;81;20204;-87
2021/08/26 11:57:05;;;;;;;;;;;;;;;15.18;79.49;97378.63;1725567;81;24797;-87
2021/08/26 11:59:33;;;;;;;;;;;;;;;15.27;79.54;97384.77;1739114;80;21404;-87
2021/08/26 12:02:19;;;;;;;;;;;;;;;15.35;79.61;97386.08;1723803;82;26732;-87
2021/08/26 12:04:47;;;;;;;;;;;;;;;15.38;79.64;97374.70;1723195;83;25156;-86
2021/08/26 12:07:21;;;;;;;;;;;;;;;15.44;79.69;97377.18;1722310;83;20362;-85
2021/08/26 12:09:47;;;;;;;;;;;;;;;15.55;79.77;97374.78;1724817;82;24849;-85
2021/08/26 12:12:14;;;;;;;;;;;;;;;15.62;79.86;97369.16;1723456;82;20277;-85
2021/08/26 12:14:40;;;;;;;;;;;;;;;15.76;79.96;97361.92;1722250;82;26073;-85
2021/08/26 12:17:11;;;;;;;;;;;;;;;15.87;80.04;97365.55;1719662;83;24487;-85
2021/08/26 12:19:37;;;;;;;;;;;;;;;16.00;80.10;97357.92;1766832;80;20209;-86
2021/08/26 12:22:04;;;;;;;;;;;;;;;16.05;80.17;97357.42;1769584;80;24760;-85
2021/08/26 12:24:30;;;;;;;;;;;;;;;16.12;80.25;97353.12;1719847;81;22157;-85
2021/08/26 12:26:58;;;;;;;;;;;;;;;16.15;80.25;97349.64;1738905;81;26007;-85
2021/08/26 12:29:24;;;;;;;;;;;;;;;16.21;80.25;97340.23;1733839;80;24511;-85
2021/08/26 12:31:50;;;;;;;;;;;;;;;16.26;80.27;97344.50;1735472;82;20302;-85
2021/08/26 12:34:19;;;;;;;;;;;;;;;16.27;80.25;97339.55;1739179;81;25366;-85
2021/08/26 12:36:45;;;;;;;;;;;;;;;16.25;80.23;97342.38;1739638;81;22244;-85
2021/08/26 12:39:18;;;;;;;;;;;;;;;16.20;80.18;97338.08;1741004;81;25905;-85
2021/08/26 12:41:44;;;;;;;;;;;;;;;16.19;80.16;97339.09;1740298;81;24486;-86
2021/08/26 12:44:11;;;;;;;;;;;;;;;16.19;80.14;97339.09;1739757;81;20762;-86
2021/08/26 12:46:39;;;;;;;;;;;;;;;16.16;80.13;97332.81;1739679;81;24838;-85
2021/08/26 12:49:08;;;;;;;;;;;;;;;16.14;80.11;97318.16;1738897;81;22173;-88
2021/08/26 12:51:35;;;;;;;;;;;;;;;16.11;80.10;97317.16;1739866;82;26128;-88
2021/08/26 12:54:06;;;;;;;;;;;;;;;16.07;80.03;97321.96;1739554;81;24016;-88
2021/08/26 12:56:40;;;;;;;;;;;;;;;16.03;80.01;97323.30;1739443;82;20295;-89
2021/08/26 12:59:08;;;;;;;;;;;;;;;16.03;79.98;97326.43;1739688;82;24762;-88
2021/08/26 13:01:39;;;;;;;;;;;;;;;15.98;79.96;97321.66;1739497;81;22811;-86